Sugar Land Regional Airport Houston US
ICAO: KSGR
IATA: SGR
Category: Medium
Scheduled Services: No

Elevation: 82 ft
TransAlt. 18000 ft.

Airport Communications:
HOUSTON APP/DEP:123.8
ASOS:118.125
CTAF:118.65
GND/CLNC DEL:121.4
TWR:118.65
UNICOM:122.95

KSGR Zoom In..

Runways:

(A) RW 17 length 8000 ft width 100 ft
---- / hdg 170

(B) RW 35 length 8000 ft width 100 ft
ILS 110.70 / hdg 350

Location; KSGR
Day. 23 / Time. 09.53 Zulu
* Altimeter: 29.87
* Temperature: 27° c. 80.6°f.
* Wind from: 230° Speed 10 kn.
Dewpoint: 26° c.
Visibility: 10 Statute Miles.
Clouds: Overcast 600 ft.

KSGR 230953Z AUTO 23010KT 10SM OVC006 27/26 A2987 RMK AO2 SLP116 T02720256 $


Wind From 230°
Speed 10 kn.

 
 
jpsmedia.com for Web Design worldairports.se 2018   terms of use